Aegean Navigator — SWBI — position and weather

sailwx.info

Track history (hours):
 
Tides and Currents Weather Stations Pressure Air Temp Water Temp Dewpoint Dewpoint Depression Visibility Wind Speed Wind Dir Waves Ship Positions

Aegean Navigator

Last reported at 2016-Jun-21 18:32 UTC. Time now 2016-Jun-26 12:01 UTC.
Position N 22°42' W 017°52'.

Length 274 m; draft 9 m.

Type: Ship. MMSI: 240634000.

Date/timePositionNaut miles runAvg speedWind from/ knotsBaromVisibWave heightAir tempDewpointWater temp
2016-Jun-21 18:32N 22°42' W 017°52'30511.3
2016-Jun-20 15:33N 26°54' W 014°42'1211.4
2016-Jun-20 14:32N 27°02' W 014°33'1111.5
2016-Jun-20 13:32N 27°11' W 014°25'1111.3
2016-Jun-20 12:33N 27°20' W 014°17'1111.2
2016-Jun-20 11:33N 27°28' W 014°09'1211.6
2016-Jun-20 10:32N 27°37' W 014°00'1111.3
2016-Jun-20 09:33N 27°46' W 013°52'1111.2
2016-Jun-20 08:34N 27°54' W 013°44'1111.3
2016-Jun-20 07:33N 28°03' W 013°36'1211.4
2016-Jun-20 06:31N 28°12' W 013°27'1111.5
2016-Jun-20 05:33N 28°21' W 013°19'1211.5
2016-Jun-20 04:33N 28°29' W 013°11'1211.0
2016-Jun-20 03:28N 28°38' W 013°02'1010.9
2016-Jun-20 02:34N 28°46' W 012°55'1111.3
2016-Jun-20 01:34N 28°55' W 012°47'1111.2
2016-Jun-20 00:33N 29°05' W 012°41'1211.3
2016-Jun-19 23:31N 29°15' W 012°34'1111.4
2016-Jun-19 22:33N 29°25' W 012°28'2311.4
2016-Jun-19 20:32N 29°45' W 012°15'2211.1
2016-Jun-19 18:31N 30°04' W 012°03'1311.3
2016-Jun-19 17:24N 30°15' W 011°56'1411.3
2016-Jun-19 16:12N 30°27' W 011°48'811.2
2016-Jun-19 15:28N 30°34' W 011°43'1010.9
2016-Jun-19 14:33N 30°43' W 011°37'3311.0
2016-Jun-19 11:32N 31°12' W 011°19'4110.4
2016-Jun-19 07:33N 31°48' W 010°55'1310.2
2016-Jun-19 06:15N 32°00' W 010°47'12010.3
2016-Jun-18 18:33N 33°35' W 009°20'23310.4
2016-Jun-17 20:07N 35°57' W 005°36'5 8.4
2016-Jun-17 19:34N 35°59' W 005°30'7 7.1
2016-Jun-17 18:33N 36°03' W 005°23'7 7.0
2016-Jun-17 17:34N 36°10' W 005°23'0 0.1
2016-Jun-17 16:33N 36°10' W 005°23'0 0.0
2016-Jun-17 15:33N 36°10' W 005°23'0 0.0
2016-Jun-17 14:33N 36°10' W 005°23'0 0.0
2016-Jun-17 13:34N 36°10' W 005°23'0 0.0
2016-Jun-17 12:34N 36°10' W 005°23'0 0.1
2016-Jun-17 11:34N 36°10' W 005°23'0 0.0
2016-Jun-17 10:33N 36°10' W 005°23'0 0.2
2016-Jun-17 09:34N 36°10' W 005°23'0 0.0
2016-Jun-17 08:34N 36°10' W 005°23'0 0.1
2016-Jun-17 07:33N 36°10' W 005°23'0 0.0
2016-Jun-17 06:34N 36°10' W 005°23'0 0.1
2016-Jun-17 05:34N 36°10' W 005°23'0 0.0
2016-Jun-17 04:34N 36°10' W 005°23'0 0.2
2016-Jun-17 03:33N 36°10' W 005°23'0 0.1
2016-Jun-17 02:32N 36°10' W 005°23'0 0.1
2016-Jun-17 01:33N 36°10' W 005°24'0 0.1
2016-Jun-17 00:34N 36°10' W 005°24'1 0.4
2016-Jun-16 22:32N 36°10' W 005°25'0 0.0
2016-Jun-16 07:08N 36°10' W 005°25'0 0.0
2016-Jun-16 05:29N 36°10' W 005°25'0 0.0
2016-Jun-16 04:29N 36°10' W 005°25'0 0.1
2016-Jun-16 03:29N 36°10' W 005°25'0 0.1
2016-Jun-16 02:32N 36°10' W 005°25'0 0.1
2016-Jun-16 01:32N 36°10' W 005°25'0 0.0
2016-Jun-16 00:32N 36°10' W 005°25'0 0.1
2016-Jun-15 23:32N 36°10' W 005°25'0 0.0
2016-Jun-15 22:29N 36°10' W 005°25'0 0.1
2016-Jun-15 21:29N 36°10' W 005°25'0 0.0
2016-Jun-15 20:29N 36°10' W 005°25'1 0.6
2016-Jun-15 19:33N 36°10' W 005°24'5 5.2
2016-Jun-15 18:33N 36°05' W 005°22'2 2.0
2016-Jun-15 17:33N 36°03' W 005°20'6 6.3
2016-Jun-15 16:33N 35°59' W 005°25'  
2016-Jun-13 10:26N 29°38' W 012°24'8 9.7
2016-Jun-13 09:33N 29°31' W 012°29'1110.5
2016-Jun-13 08:31N 29°21' W 012°35'1210.3
2016-Jun-13 07:24N 29°11' W 012°41'910.2
2016-Jun-13 06:32N 29°03' W 012°46'1010.2
2016-Jun-13 05:32N 28°54' W 012°52'1010.2
2016-Jun-13 04:32N 28°45' W 012°58'1010.2
2016-Jun-13 03:33N 28°37' W 013°04'1010.4
2016-Jun-13 02:33N 28°28' W 013°09'1110.7
2016-Jun-13 01:33N 28°18' W 013°15'1110.7
2016-Jun-13 00:33N 28°09' W 013°21'1110.4
2016-Jun-12 23:31N 27°60' W 013°27'1010.3
2016-Jun-12 22:32N 27°52' W 013°34'1010.5
2016-Jun-12 21:32N 27°44' W 013°42'1010.4
2016-Jun-12 20:33N 27°36' W 013°49'  
Track history (hours):
 
Tides and Currents Weather Stations Pressure Air Temp Water Temp Dewpoint Dewpoint Depression Visibility Wind Speed Wind Dir Waves Ship Positions

Aegean Navigator

Last reported at 2016-Jun-21 18:32 UTC. Time now 2016-Jun-26 12:01 UTC.
Position N 22°42' W 017°52'.

Length 274 m; draft 9 m.

Type: Ship. MMSI: 240634000.

Date/timePositionNaut miles runAvg speedWind from/ knotsBaromVisibWave heightAir tempDewpointWater temp
2016-Jun-21 18:32N 22°42' W 017°52'30511.3
2016-Jun-20 15:33N 26°54' W 014°42'1211.4
2016-Jun-20 14:32N 27°02' W 014°33'1111.5
2016-Jun-20 13:32N 27°11' W 014°25'1111.3
2016-Jun-20 12:33N 27°20' W 014°17'1111.2
2016-Jun-20 11:33N 27°28' W 014°09'1211.6
2016-Jun-20 10:32N 27°37' W 014°00'1111.3
2016-Jun-20 09:33N 27°46' W 013°52'1111.2
2016-Jun-20 08:34N 27°54' W 013°44'1111.3
2016-Jun-20 07:33N 28°03' W 013°36'1211.4
2016-Jun-20 06:31N 28°12' W 013°27'1111.5
2016-Jun-20 05:33N 28°21' W 013°19'1211.5
2016-Jun-20 04:33N 28°29' W 013°11'1211.0
2016-Jun-20 03:28N 28°38' W 013°02'1010.9
2016-Jun-20 02:34N 28°46' W 012°55'1111.3
2016-Jun-20 01:34N 28°55' W 012°47'1111.2
2016-Jun-20 00:33N 29°05' W 012°41'1211.3
2016-Jun-19 23:31N 29°15' W 012°34'1111.4
2016-Jun-19 22:33N 29°25' W 012°28'2311.4
2016-Jun-19 20:32N 29°45' W 012°15'2211.1
2016-Jun-19 18:31N 30°04' W 012°03'1311.3
2016-Jun-19 17:24N 30°15' W 011°56'1411.3
2016-Jun-19 16:12N 30°27' W 011°48'811.2
2016-Jun-19 15:28N 30°34' W 011°43'1010.9
2016-Jun-19 14:33N 30°43' W 011°37'3311.0
2016-Jun-19 11:32N 31°12' W 011°19'4110.4
2016-Jun-19 07:33N 31°48' W 010°55'1310.2
2016-Jun-19 06:15N 32°00' W 010°47'12010.3
2016-Jun-18 18:33N 33°35' W 009°20'23310.4
2016-Jun-17 20:07N 35°57' W 005°36'5 8.4
2016-Jun-17 19:34N 35°59' W 005°30'7 7.1
2016-Jun-17 18:33N 36°03' W 005°23'7 7.0
2016-Jun-17 17:34N 36°10' W 005°23'0 0.1
2016-Jun-17 16:33N 36°10' W 005°23'0 0.0
2016-Jun-17 15:33N 36°10' W 005°23'0 0.0
2016-Jun-17 14:33N 36°10' W 005°23'0 0.0
2016-Jun-17 13:34N 36°10' W 005°23'0 0.0
2016-Jun-17 12:34N 36°10' W 005°23'0 0.1
2016-Jun-17 11:34N 36°10' W 005°23'0 0.0
2016-Jun-17 10:33N 36°10' W 005°23'0 0.2
2016-Jun-17 09:34N 36°10' W 005°23'0 0.0
2016-Jun-17 08:34N 36°10' W 005°23'0 0.1
2016-Jun-17 07:33N 36°10' W 005°23'0 0.0
2016-Jun-17 06:34N 36°10' W 005°23'0 0.1
2016-Jun-17 05:34N 36°10' W 005°23'0 0.0
2016-Jun-17 04:34N 36°10' W 005°23'0 0.2
2016-Jun-17 03:33N 36°10' W 005°23'0 0.1
2016-Jun-17 02:32N 36°10' W 005°23'0 0.1
2016-Jun-17 01:33N 36°10' W 005°24'0 0.1
2016-Jun-17 00:34N 36°10' W 005°24'1 0.4
2016-Jun-16 22:32N 36°10' W 005°25'0 0.0
2016-Jun-16 07:08N 36°10' W 005°25'0 0.0
2016-Jun-16 05:29N 36°10' W 005°25'0 0.0
2016-Jun-16 04:29N 36°10' W 005°25'0 0.1
2016-Jun-16 03:29N 36°10' W 005°25'0 0.1
2016-Jun-16 02:32N 36°10' W 005°25'0 0.1
2016-Jun-16 01:32N 36°10' W 005°25'0 0.0
2016-Jun-16 00:32N 36°10' W 005°25'0 0.1
2016-Jun-15 23:32N 36°10' W 005°25'0 0.0
2016-Jun-15 22:29N 36°10' W 005°25'0 0.1
2016-Jun-15 21:29N 36°10' W 005°25'0 0.0
2016-Jun-15 20:29N 36°10' W 005°25'1 0.6
2016-Jun-15 19:33N 36°10' W 005°24'5 5.2
2016-Jun-15 18:33N 36°05' W 005°22'2 2.0
2016-Jun-15 17:33N 36°03' W 005°20'6 6.3
2016-Jun-15 16:33N 35°59' W 005°25'  
2016-Jun-13 10:26N 29°38' W 012°24'8 9.7
2016-Jun-13 09:33N 29°31' W 012°29'1110.5
2016-Jun-13 08:31N 29°21' W 012°35'1210.3
2016-Jun-13 07:24N 29°11' W 012°41'910.2
2016-Jun-13 06:32N 29°03' W 012°46'1010.2
2016-Jun-13 05:32N 28°54' W 012°52'1010.2
2016-Jun-13 04:32N 28°45' W 012°58'1010.2
2016-Jun-13 03:33N 28°37' W 013°04'1010.4
2016-Jun-13 02:33N 28°28' W 013°09'1110.7
2016-Jun-13 01:33N 28°18' W 013°15'1110.7
2016-Jun-13 00:33N 28°09' W 013°21'1110.4
2016-Jun-12 23:31N 27°60' W 013°27'1010.3
2016-Jun-12 22:32N 27°52' W 013°34'1010.5
2016-Jun-12 21:32N 27°44' W 013°42'1010.4
2016-Jun-12 20:33N 27°36' W 013°49'  

Dump ship's entire track history